createdAt,value
2023-03-13T00:01:34.590Z,2.10
2023-03-13T00:04:01.766Z,2.20
2023-03-13T00:06:32.321Z,2.10
2023-03-13T00:09:00.788Z,2.00
2023-03-13T00:11:28.116Z,2.10
2023-03-13T00:13:59.702Z,2.20
2023-03-13T00:16:27.997Z,2.20
2023-03-13T00:18:56.125Z,2.20
2023-03-13T00:21:25.856Z,2.10
2023-03-13T00:23:53.277Z,2.20
2023-03-13T00:26:22.657Z,2.20
2023-03-13T00:28:50.914Z,2.20
2023-03-13T00:31:21.362Z,2.30
2023-03-13T00:33:54.291Z,2.30
2023-03-13T00:36:26.461Z,2.40
2023-03-13T00:38:57.203Z,2.40
2023-03-13T00:41:29.402Z,2.40
2023-03-13T00:44:03.520Z,2.50
2023-03-13T00:46:30.998Z,2.50
2023-03-13T00:48:58.376Z,2.60
2023-03-13T00:51:27.264Z,2.60
2023-03-13T00:53:55.805Z,2.60
2023-03-13T00:56:23.866Z,2.70
2023-03-13T00:58:51.281Z,2.80
2023-03-13T01:01:26.991Z,2.90
2023-03-13T01:03:56.204Z,2.80
2023-03-13T01:06:26.310Z,2.90
2023-03-13T01:08:56.201Z,2.90
2023-03-13T01:11:28.969Z,2.90
2023-03-13T01:13:57.795Z,2.90
2023-03-13T01:16:26.129Z,3.00
2023-03-13T01:18:54.958Z,3.10
2023-03-13T01:21:23.977Z,3.00
2023-03-13T01:23:52.449Z,3.00
2023-03-13T01:26:26.633Z,3.10
2023-03-13T01:28:53.774Z,3.10
2023-03-13T01:31:26.869Z,3.10
2023-03-13T01:33:59.516Z,3.10
2023-03-13T01:36:27.492Z,3.10
2023-03-13T01:38:57.019Z,2.90
2023-03-13T01:41:24.969Z,3.00
2023-03-13T01:43:55.889Z,3.00
2023-03-13T01:46:28.124Z,3.00
2023-03-13T01:49:10.498Z,3.00
2023-03-13T01:52:10.419Z,3.00
2023-03-13T01:54:43.047Z,3.00
2023-03-13T01:57:28.098Z,2.90
2023-03-13T02:00:05.201Z,3.00
2023-03-13T02:02:32.079Z,3.00
2023-03-13T02:05:04.010Z,2.90
2023-03-13T02:08:06.526Z,3.00
2023-03-13T02:10:38.775Z,3.00
2023-03-13T02:13:05.847Z,2.90
2023-03-13T02:15:33.860Z,2.80
2023-03-13T02:18:00.763Z,2.80
2023-03-13T02:20:27.770Z,2.70
2023-03-13T02:22:57.583Z,2.80
2023-03-13T02:25:24.367Z,2.80
2023-03-13T02:28:00.353Z,2.80
2023-03-13T02:30:28.343Z,2.70
2023-03-13T02:32:56.292Z,2.80
2023-03-13T02:35:28.320Z,2.80
2023-03-13T02:38:00.015Z,2.80
2023-03-13T02:40:31.057Z,2.80
2023-03-13T02:43:02.697Z,2.80
2023-03-13T02:45:29.462Z,2.70
2023-03-13T02:47:56.308Z,2.80
2023-03-13T02:50:24.965Z,2.80
2023-03-13T02:53:03.141Z,2.80
2023-03-13T02:55:41.334Z,2.80
2023-03-13T02:58:09.617Z,2.80
2023-03-13T03:00:36.841Z,2.80
2023-03-13T03:03:03.687Z,2.70
2023-03-13T03:05:30.628Z,2.70
2023-03-13T03:07:57.443Z,2.60
2023-03-13T03:10:24.265Z,2.60
2023-03-13T03:12:51.064Z,2.60
2023-03-13T03:15:17.929Z,2.60
2023-03-13T03:17:44.805Z,2.60
2023-03-13T03:20:12.232Z,2.60
2023-03-13T03:22:40.891Z,2.60
2023-03-13T03:25:09.437Z,2.60
2023-03-13T03:27:36.532Z,2.70
2023-03-13T03:30:04.878Z,2.70
2023-03-13T03:32:31.743Z,2.70
2023-03-13T03:34:58.590Z,2.70
2023-03-13T03:37:25.457Z,2.70
2023-03-13T03:39:52.315Z,2.70
2023-03-13T03:42:19.092Z,2.60
2023-03-13T03:44:45.894Z,2.70
2023-03-13T03:47:13.289Z,2.80
2023-03-13T03:49:40.522Z,2.80
2023-03-13T03:52:07.471Z,2.80
2023-03-13T03:54:35.142Z,2.80
2023-03-13T03:57:02.135Z,2.70
2023-03-13T03:59:29.023Z,2.70
2023-03-13T04:01:56.596Z,2.70
2023-03-13T04:04:23.706Z,2.70
2023-03-13T04:06:50.488Z,2.70
2023-03-13T04:09:17.358Z,2.70
2023-03-13T04:11:44.181Z,2.60
2023-03-13T04:14:11.005Z,2.60
2023-03-13T04:16:37.856Z,2.60
2023-03-13T04:19:04.813Z,2.60
2023-03-13T04:21:32.464Z,2.60
2023-03-13T04:23:59.243Z,2.70
2023-03-13T04:26:26.050Z,2.80
2023-03-13T04:28:53.016Z,2.80
2023-03-13T04:31:19.854Z,2.70
2023-03-13T04:33:46.681Z,2.60
2023-03-13T04:36:13.543Z,2.60
2023-03-13T04:38:40.413Z,2.60
2023-03-13T04:41:07.295Z,2.50
2023-03-13T04:43:34.091Z,2.50
2023-03-13T04:46:00.918Z,2.50
2023-03-13T04:48:27.780Z,2.40
2023-03-13T04:50:54.547Z,2.50
2023-03-13T04:53:21.384Z,2.40
2023-03-13T04:55:49.971Z,2.50
2023-03-13T04:58:16.763Z,2.40
2023-03-13T05:00:43.752Z,2.40
2023-03-13T05:03:10.541Z,2.50
2023-03-13T05:05:37.799Z,2.50
2023-03-13T05:08:06.049Z,2.50
2023-03-13T05:10:32.857Z,2.60
2023-03-13T05:12:59.600Z,2.60
2023-03-13T05:15:26.351Z,2.50
2023-03-13T05:17:54.699Z,2.50
2023-03-13T05:20:21.614Z,2.70
2023-03-13T05:22:48.376Z,2.60
2023-03-13T05:25:15.483Z,2.70
2023-03-13T05:27:42.341Z,2.70
2023-03-13T05:30:09.860Z,2.70
2023-03-13T05:32:36.732Z,2.80
2023-03-13T05:35:03.618Z,2.80
2023-03-13T05:37:30.426Z,2.80
2023-03-13T05:39:57.276Z,2.80
2023-03-13T05:42:27.439Z,2.80
2023-03-13T05:44:54.553Z,2.80
2023-03-13T05:47:21.946Z,2.80
2023-03-13T05:49:48.692Z,2.70
2023-03-13T05:52:15.504Z,2.80
2023-03-13T05:54:42.319Z,2.80
2023-03-13T05:57:09.098Z,2.70
2023-03-13T05:59:35.936Z,2.70
2023-03-13T06:02:02.718Z,2.70
2023-03-13T06:04:29.633Z,2.80
2023-03-13T06:06:56.479Z,2.80
2023-03-13T06:09:23.364Z,2.80
2023-03-13T06:11:50.192Z,2.80
2023-03-13T06:14:17.089Z,2.80
2023-03-13T06:16:44.076Z,2.80
2023-03-13T06:19:11.981Z,2.80
2023-03-13T06:21:39.258Z,2.80
2023-03-13T06:24:06.758Z,2.80
2023-03-13T06:26:33.685Z,2.80
2023-03-13T06:29:00.469Z,2.70
2023-03-13T06:31:27.382Z,2.80
2023-03-13T06:33:55.504Z,2.90
2023-03-13T06:36:24.079Z,2.90
2023-03-13T06:38:51.375Z,3.00
2023-03-13T06:41:18.306Z,3.10
2023-03-13T06:43:45.115Z,3.10
2023-03-13T06:46:21.196Z,3.10
2023-03-13T06:48:48.372Z,3.10
2023-03-13T06:51:17.538Z,3.30
2023-03-13T06:53:44.359Z,3.30
2023-03-13T06:56:11.520Z,3.40
2023-03-13T06:58:38.492Z,3.40
2023-03-13T07:01:13.163Z,3.40
2023-03-13T07:03:43.776Z,3.50
2023-03-13T07:06:12.354Z,3.50
2023-03-13T07:08:39.882Z,3.60
2023-03-13T07:11:10.147Z,3.40
2023-03-13T07:13:37.797Z,3.50
2023-03-13T07:16:10.455Z,3.60
2023-03-13T07:18:39.421Z,3.70
2023-03-13T07:21:06.278Z,3.80
2023-03-13T07:23:36.695Z,3.80
2023-03-13T07:26:07.546Z,3.90
2023-03-13T07:28:37.574Z,3.80
2023-03-13T07:31:06.024Z,3.90
2023-03-13T07:33:33.487Z,4.00
2023-03-13T07:36:00.447Z,4.20
2023-03-13T07:38:27.294Z,4.20
2023-03-13T07:41:00.265Z,4.40
2023-03-13T07:43:28.026Z,4.20
2023-03-13T07:45:57.123Z,4.30
2023-03-13T07:48:26.158Z,4.30
2023-03-13T07:50:55.312Z,4.40
2023-03-13T07:53:22.551Z,4.60
2023-03-13T07:58:36.821Z,4.80
2023-03-13T08:01:17.554Z,4.70
2023-03-13T08:03:45.452Z,4.80
2023-03-13T08:06:17.431Z,4.90
2023-03-13T08:08:45.499Z,5.00
2023-03-13T08:11:15.329Z,5.10
2023-03-13T08:13:42.829Z,5.20
2023-03-13T08:16:15.323Z,5.30
2023-03-13T08:18:44.972Z,5.40
2023-03-13T08:21:15.114Z,5.40
2023-03-13T08:23:43.182Z,5.60
2023-03-13T08:26:16.579Z,5.60
2023-03-13T08:28:45.366Z,5.70
2023-03-13T08:31:14.978Z,5.80
2023-03-13T08:33:44.061Z,5.90
2023-03-13T08:36:17.322Z,6.00
2023-03-13T08:38:46.386Z,5.90
2023-03-13T08:41:20.230Z,6.00
2023-03-13T08:43:47.616Z,6.20
2023-03-13T08:46:24.452Z,6.20
2023-03-13T08:48:53.093Z,6.40
2023-03-13T08:51:22.153Z,6.50
2023-03-13T08:53:51.330Z,6.60
2023-03-13T08:56:20.832Z,6.70
2023-03-13T08:58:52.561Z,6.90
2023-03-13T09:01:20.226Z,7.00
2023-03-13T09:04:52.394Z,7.30
2023-03-13T09:07:19.457Z,7.60
2023-03-13T09:10:11.476Z,7.90
2023-03-13T09:12:46.242Z,8.30
2023-03-13T09:24:09.889Z,8.90
2023-03-13T09:26:36.965Z,9.10
2023-03-13T09:29:03.808Z,9.30
2023-03-13T09:31:32.147Z,9.40
2023-03-13T09:34:03.471Z,9.40
2023-03-13T09:36:30.676Z,9.40
2023-03-13T09:38:59.413Z,9.60
2023-03-13T09:42:07.751Z,9.70
2023-03-13T09:44:42.993Z,9.70
2023-03-13T09:47:40.373Z,9.80
2023-03-13T09:50:19.992Z,9.80
2023-03-13T09:52:51.257Z,10.10
2023-03-13T09:55:34.701Z,10.30
2023-03-13T09:58:16.629Z,10.50
2023-03-13T10:01:11.045Z,10.50
2023-03-13T10:03:56.311Z,10.50
2023-03-13T10:06:25.489Z,10.50
2023-03-13T10:08:52.929Z,10.50
2023-03-13T10:11:47.622Z,10.40
2023-03-13T10:14:25.225Z,10.50
2023-03-13T10:17:13.421Z,10.50
2023-03-13T10:19:43.576Z,10.60
2023-03-13T10:22:31.421Z,10.30
2023-03-13T10:25:22.189Z,10.40
2023-03-13T10:27:57.970Z,10.40
2023-03-13T10:30:30.822Z,10.40
2023-03-13T10:33:07.536Z,10.40
2023-03-13T10:35:40.083Z,10.40
2023-03-13T10:38:14.055Z,10.40
2023-03-13T10:40:42.776Z,10.30
2023-03-13T10:43:22.493Z,10.30
2023-03-13T10:45:49.575Z,10.40
2023-03-13T10:48:29.141Z,10.40
2023-03-13T10:50:57.612Z,10.40
2023-03-13T10:53:30.664Z,10.40
2023-03-13T10:56:10.509Z,10.40
2023-03-13T10:58:57.708Z,10.40
2023-03-13T11:01:41.000Z,10.40
2023-03-13T11:04:30.520Z,10.30
2023-03-13T11:07:21.250Z,10.40
2023-03-13T11:10:01.904Z,10.40
2023-03-13T11:12:33.017Z,10.40
2023-03-13T11:15:01.889Z,10.50
2023-03-13T11:17:32.022Z,10.50
2023-03-13T11:20:22.117Z,10.60
2023-03-13T11:23:17.677Z,10.70
2023-03-13T11:26:20.581Z,10.80
2023-03-13T11:29:26.499Z,10.90
2023-03-13T11:32:06.712Z,11.20
2023-03-13T11:34:59.467Z,11.20
2023-03-13T11:37:31.465Z,11.40
2023-03-13T11:40:07.928Z,11.80
2023-03-13T11:42:43.946Z,12.00
2023-03-13T11:45:47.661Z,12.20
2023-03-13T11:49:07.474Z,12.60
2023-03-13T11:52:12.676Z,12.70
2023-03-13T11:54:51.478Z,12.70
2023-03-13T11:57:32.298Z,12.80
2023-03-13T12:00:23.118Z,12.70
2023-03-13T12:02:56.193Z,12.60
2023-03-13T12:05:24.800Z,12.50
2023-03-13T12:08:04.970Z,12.50
2023-03-13T12:10:43.229Z,12.60
2023-03-13T12:13:34.914Z,12.40
2023-03-13T12:16:08.036Z,12.50
2023-03-13T12:18:46.648Z,12.30
2023-03-13T12:21:42.703Z,12.30
2023-03-13T12:24:25.479Z,12.20
2023-03-13T12:27:05.813Z,12.10
2023-03-13T12:29:51.318Z,12.20
2023-03-13T12:32:38.860Z,12.20
2023-03-13T12:35:28.976Z,12.10
2023-03-13T12:38:24.505Z,12.10
2023-03-13T12:41:26.926Z,12.10
2023-03-13T12:44:07.628Z,12.10
2023-03-13T12:47:07.637Z,11.90
2023-03-13T12:50:02.689Z,11.80
2023-03-13T12:52:38.370Z,11.80
2023-03-13T12:55:31.833Z,11.60
2023-03-13T12:58:15.248Z,11.50
2023-03-13T13:00:46.011Z,11.30
2023-03-13T13:03:21.687Z,11.30
2023-03-13T13:06:08.533Z,11.20
2023-03-13T13:08:38.813Z,11.10
2023-03-13T13:11:37.692Z,11.10
2023-03-13T13:14:27.638Z,11.10
2023-03-13T13:17:13.505Z,11.10
2023-03-13T13:19:42.117Z,10.90
2023-03-13T13:22:36.867Z,10.90
2023-03-13T13:25:30.449Z,10.80
2023-03-13T13:28:31.439Z,10.60
2023-03-13T13:30:58.548Z,10.50
2023-03-13T13:33:30.666Z,10.40
2023-03-13T13:36:10.558Z,10.30
2023-03-13T13:38:40.547Z,10.30
2023-03-13T13:41:10.573Z,10.30
2023-03-13T13:43:45.575Z,10.30
2023-03-13T13:46:33.263Z,10.20
2023-03-13T13:49:06.655Z,10.20
2023-03-13T13:52:06.907Z,10.10
2023-03-13T13:54:43.429Z,10.00
2023-03-13T13:57:18.880Z,9.90
2023-03-13T13:59:50.163Z,9.90
2023-03-13T14:02:23.850Z,9.90
2023-03-13T14:05:02.490Z,9.80
2023-03-13T14:07:31.879Z,9.80
2023-03-13T14:10:06.224Z,9.80
2023-03-13T14:12:38.395Z,9.70
2023-03-13T14:15:20.851Z,9.70
2023-03-13T14:17:50.754Z,9.60
2023-03-13T14:20:36.644Z,9.60
2023-03-13T14:23:06.758Z,9.60
2023-03-13T14:25:44.734Z,9.60
2023-03-13T14:28:27.908Z,9.60
2023-03-13T14:30:58.646Z,9.60
2023-03-13T14:33:47.425Z,9.50
2023-03-13T14:36:14.496Z,9.60
2023-03-13T14:38:55.563Z,9.60
2023-03-13T14:41:37.763Z,9.60
2023-03-13T14:44:25.609Z,9.60
2023-03-13T14:47:08.523Z,9.70
2023-03-13T14:49:37.184Z,9.70
2023-03-13T14:52:24.106Z,9.70
2023-03-13T14:54:57.369Z,9.70
2023-03-13T14:57:27.634Z,9.70
2023-03-13T15:00:15.949Z,9.80
2023-03-13T15:02:43.352Z,9.70
2023-03-13T15:05:35.038Z,9.70
2023-03-13T15:08:02.258Z,9.70
2023-03-13T15:10:37.188Z,9.70
2023-03-13T15:13:25.516Z,9.60
2023-03-13T15:15:56.870Z,9.60
2023-03-13T15:18:26.700Z,9.60
2023-03-13T15:20:59.139Z,9.50
2023-03-13T15:23:26.247Z,9.50
2023-03-13T15:25:53.080Z,9.50
2023-03-13T15:28:23.985Z,9.40
2023-03-13T15:31:00.501Z,9.50
2023-03-13T15:33:29.497Z,9.50
2023-03-13T15:35:57.002Z,9.40
2023-03-13T15:38:27.947Z,9.40
2023-03-13T15:40:55.215Z,9.40
2023-03-13T15:43:22.852Z,9.40
2023-03-13T15:45:51.864Z,9.30
2023-03-13T15:48:25.346Z,9.30
2023-03-13T15:50:58.644Z,9.30
2023-03-13T15:53:27.706Z,9.30
2023-03-13T15:55:56.862Z,9.30
2023-03-13T15:58:24.805Z,9.40
2023-03-13T16:00:52.571Z,9.30
2023-03-13T16:03:25.055Z,9.30
2023-03-13T16:05:53.616Z,9.40
2023-03-13T16:08:35.377Z,9.40
2023-03-13T16:11:03.927Z,9.40
2023-03-13T16:13:31.508Z,9.40
2023-03-13T16:15:58.679Z,9.40
2023-03-13T16:18:26.109Z,9.40
2023-03-13T16:20:53.679Z,9.40
2023-03-13T16:23:20.541Z,9.40
2023-03-13T16:25:49.037Z,9.40
2023-03-13T16:28:16.259Z,9.40
2023-03-13T16:30:43.868Z,9.40
2023-03-13T16:33:11.617Z,9.40
2023-03-13T16:35:39.316Z,9.40
2023-03-13T16:38:09.694Z,9.50
2023-03-13T16:40:36.815Z,9.50
2023-03-13T16:43:03.788Z,9.40
2023-03-13T16:45:30.763Z,9.50
2023-03-13T16:47:57.717Z,9.50
2023-03-13T16:50:40.696Z,9.50
2023-03-13T16:53:07.678Z,9.50
2023-03-13T16:55:37.013Z,9.60
2023-03-13T16:58:04.736Z,9.60
2023-03-13T17:00:32.858Z,9.50
2023-03-13T17:03:01.410Z,9.60
2023-03-13T17:05:28.588Z,9.60
2023-03-13T17:07:55.736Z,9.60
2023-03-13T17:10:33.038Z,9.60
2023-03-13T17:13:00.595Z,9.60
2023-03-13T17:15:28.471Z,9.60
2023-03-13T17:18:08.709Z,9.60
2023-03-13T17:20:35.653Z,9.70
2023-03-13T17:23:02.617Z,9.70
2023-03-13T17:25:39.058Z,9.70
2023-03-13T17:28:05.980Z,9.70
2023-03-13T17:30:34.084Z,9.70
2023-03-13T17:33:01.023Z,9.70
2023-03-13T17:35:27.983Z,9.80
2023-03-13T17:37:54.808Z,9.80
2023-03-13T17:40:28.001Z,9.80
2023-03-13T17:42:56.346Z,9.80
2023-03-13T17:45:23.819Z,9.90
2023-03-13T17:47:50.861Z,9.90
2023-03-13T17:50:28.142Z,10.00
2023-03-13T17:52:55.911Z,10.00
2023-03-13T17:55:23.190Z,10.00
2023-03-13T17:57:50.112Z,10.00
2023-03-13T18:00:29.282Z,10.00
2023-03-13T18:02:56.699Z,10.10
2023-03-13T18:05:35.760Z,10.10
2023-03-13T18:08:05.327Z,10.10
2023-03-13T18:10:32.232Z,10.20
2023-03-13T18:12:59.239Z,10.20
2023-03-13T18:15:29.449Z,10.20
2023-03-13T18:17:59.168Z,10.20
2023-03-13T18:20:30.116Z,10.30
2023-03-13T18:23:00.301Z,10.40
2023-03-13T18:25:34.743Z,10.30
2023-03-13T18:28:01.755Z,10.30
2023-03-13T18:30:34.549Z,10.30
2023-03-13T18:33:01.689Z,10.40
2023-03-13T18:35:28.669Z,10.40
2023-03-13T18:37:56.441Z,10.40
2023-03-13T18:40:31.096Z,10.40
2023-03-13T18:43:04.109Z,10.40
2023-03-13T18:45:31.048Z,10.50
2023-03-13T18:47:58.212Z,10.50
2023-03-13T18:50:28.417Z,10.50
2023-03-13T18:52:57.876Z,10.50
2023-03-13T18:55:27.766Z,10.50
2023-03-13T18:57:55.776Z,10.50
2023-03-13T19:00:28.319Z,10.50
2023-03-13T19:02:55.418Z,10.50
2023-03-13T19:05:24.293Z,10.50
2023-03-13T19:07:51.234Z,10.50
2023-03-13T19:10:27.900Z,10.50
2023-03-13T19:12:55.646Z,10.60
2023-03-13T19:15:25.917Z,10.50
2023-03-13T19:17:54.104Z,10.60
2023-03-13T19:20:22.982Z,10.60
2023-03-13T19:22:51.836Z,10.60
2023-03-13T19:25:19.766Z,10.50
2023-03-13T19:27:47.860Z,10.50
2023-03-13T19:30:25.634Z,10.50
2023-03-13T19:32:53.444Z,10.50
2023-03-13T19:35:22.148Z,10.50
2023-03-13T19:37:49.646Z,10.50
2023-03-13T19:40:25.888Z,10.60
2023-03-13T19:42:52.873Z,10.50
2023-03-13T19:45:21.915Z,10.50
2023-03-13T19:47:48.908Z,10.60
2023-03-13T19:50:27.570Z,10.60
2023-03-13T19:52:54.566Z,10.60
2023-03-13T19:55:21.958Z,10.60
2023-03-13T19:57:48.862Z,10.60
2023-03-13T20:00:22.831Z,10.60
2023-03-13T20:02:52.187Z,10.60
2023-03-13T20:05:19.176Z,10.60
2023-03-13T20:07:46.769Z,10.70
2023-03-13T20:10:25.808Z,10.70
2023-03-13T20:12:53.723Z,10.70
2023-03-13T20:15:20.660Z,10.70
2023-03-13T20:17:47.748Z,10.80
2023-03-13T20:20:16.089Z,10.80
2023-03-13T20:22:43.150Z,10.70
2023-03-13T20:25:11.299Z,10.70
2023-03-13T20:27:41.769Z,10.80
2023-03-13T20:30:09.816Z,10.70
2023-03-13T20:32:37.881Z,10.70
2023-03-13T20:35:15.290Z,10.70
2023-03-13T20:37:45.261Z,10.70
2023-03-13T20:40:12.711Z,10.70
2023-03-13T20:42:39.853Z,10.70
2023-03-13T20:45:15.941Z,10.70
2023-03-13T20:47:42.720Z,10.70
2023-03-13T20:50:10.139Z,10.70
2023-03-13T20:52:37.027Z,10.70
2023-03-13T20:55:04.197Z,10.80
2023-03-13T20:57:30.991Z,10.70
2023-03-13T20:59:58.101Z,10.90
2023-03-13T21:02:24.996Z,10.80
2023-03-13T21:04:51.905Z,10.80
2023-03-13T21:07:18.898Z,10.80
2023-03-13T21:09:46.169Z,10.70
2023-03-13T21:12:15.408Z,10.70
2023-03-13T21:14:42.543Z,10.70
2023-03-13T21:17:11.215Z,10.70
2023-03-13T21:19:38.102Z,10.70
2023-03-13T21:22:07.593Z,10.70
2023-03-13T21:24:41.009Z,10.70
2023-03-13T21:27:08.034Z,10.70
2023-03-13T21:29:35.102Z,10.70
2023-03-13T21:32:02.139Z,10.70
2023-03-13T21:34:29.045Z,10.70
2023-03-13T21:36:56.382Z,10.70
2023-03-13T21:39:23.242Z,10.70
2023-03-13T21:41:50.078Z,10.70
2023-03-13T21:44:19.673Z,10.80
2023-03-13T21:46:48.820Z,10.70
2023-03-13T21:49:15.812Z,10.70
2023-03-13T21:51:42.708Z,10.70
2023-03-13T21:54:12.230Z,10.80
2023-03-13T21:56:39.097Z,10.60
2023-03-13T21:59:18.138Z,10.60
2023-03-13T22:01:45.341Z,10.60
2023-03-13T22:04:12.228Z,10.60
2023-03-13T22:06:41.654Z,10.70
2023-03-13T22:09:08.754Z,10.70
2023-03-13T22:11:36.352Z,10.70
2023-03-13T22:14:03.212Z,10.70
2023-03-13T22:16:30.069Z,10.70
2023-03-13T22:18:56.949Z,10.60
2023-03-13T22:21:24.189Z,10.70
2023-03-13T22:23:51.101Z,10.70
2023-03-13T22:26:22.683Z,10.70
2023-03-13T22:28:49.642Z,10.70
2023-03-13T22:31:16.612Z,10.70
2023-03-13T22:33:43.449Z,10.70
2023-03-13T22:36:10.785Z,10.70
2023-03-13T22:38:39.907Z,10.70
2023-03-13T22:41:09.452Z,10.70
2023-03-13T22:43:36.283Z,10.70
2023-03-13T22:46:04.765Z,10.80
2023-03-13T22:48:32.152Z,10.80
2023-03-13T22:51:08.581Z,10.70
2023-03-13T22:53:37.778Z,10.70
2023-03-13T22:56:05.309Z,10.70
2023-03-13T22:58:33.746Z,10.70
2023-03-13T23:01:00.620Z,10.70
2023-03-13T23:03:27.518Z,10.70
2023-03-13T23:05:54.296Z,10.70
2023-03-13T23:08:21.202Z,10.70
2023-03-13T23:10:48.153Z,10.60
2023-03-13T23:13:15.751Z,10.60
2023-03-13T23:15:58.206Z,10.50
2023-03-13T23:18:27.216Z,10.50
2023-03-13T23:20:54.787Z,10.50
2023-03-13T23:23:22.036Z,10.40
2023-03-13T23:25:48.812Z,10.40
2023-03-13T23:28:15.624Z,10.30
2023-03-13T23:30:42.424Z,10.30
2023-03-13T23:33:09.190Z,10.30
2023-03-13T23:35:39.136Z,10.30
2023-03-13T23:38:06.073Z,10.30
2023-03-13T23:40:32.880Z,10.30
2023-03-13T23:42:59.746Z,10.10
2023-03-13T23:45:26.826Z,10.10
2023-03-13T23:47:54.211Z,10.00
2023-03-13T23:50:22.152Z,9.90
2023-03-13T23:52:49.354Z,9.90
2023-03-13T23:55:16.850Z,9.80
2023-03-13T23:57:43.863Z,9.70
